Time;durP1;ratioP1;P1;durP2;ratioP2;P2;SDS_P1;SDS_P2;PMS_P1;PMS_P2;Temp;Humidity;BMP_temperature;BMP_pressure;BME280_temperature;BME280_humidity;BME280_pressure;Samples;Min_cycle;Max_cycle;Signal;HPM_P1;HPM_P2
2022/06/06 00:00:02;;;;;;;2.10;1.47;;;;;;;24.11;49.65;101457.69;1688047;84;21155;-50
2022/06/06 00:02:31;;;;;;;1.98;1.52;;;;;;;24.11;49.87;101456.36;1675847;84;21106;-48
2022/06/06 00:04:57;;;;;;;1.80;1.45;;;;;;;24.11;49.87;101451.04;1676472;85;21010;-50
2022/06/06 00:07:25;;;;;;;2.85;2.00;;;;;;;24.08;49.70;101441.95;1678660;85;21037;-55
2022/06/06 00:09:53;;;;;;;2.08;1.52;;;;;;;24.07;49.60;101444.23;1678593;85;21066;-52
2022/06/06 00:12:23;;;;;;;3.33;1.30;;;;;;;24.07;49.88;101444.73;1678713;85;21026;-49
2022/06/06 00:14:49;;;;;;;1.85;1.57;;;;;;;24.07;50.04;101446.05;1678412;85;21093;-49
2022/06/06 00:17:17;;;;;;;1.98;1.57;;;;;;;24.09;49.99;101418.38;1678423;85;21566;-49
2022/06/06 00:19:44;;;;;;;1.70;1.22;;;;;;;24.09;49.99;101418.38;1663580;85;21058;-50
2022/06/06 00:22:10;;;;;;;1.70;1.60;;;;;;;24.03;50.33;101412.59;1695647;83;21266;-49
2022/06/06 00:24:38;;;;;;;3.08;1.60;;;;;;;24.03;50.33;101412.59;1710917;83;21598;-50
2022/06/06 00:27:06;;;;;;;1.98;1.40;;;;;;;24.01;50.38;101409.19;1705761;83;21036;-49
2022/06/06 00:29:35;;;;;;;1.62;1.52;;;;;;;23.90;51.08;101404.61;1705918;83;21524;-52
2022/06/06 00:34:49;;;;;;;1.82;1.45;;;;;;;23.90;50.88;101411.73;1697930;83;21025;-50
2022/06/06 00:37:23;;;;;;;2.27;1.60;;;;;;;23.87;51.08;101412.78;1709630;83;21522;-48
2022/06/06 00:39:51;;;;;;;2.85;1.62;;;;;;;23.85;51.18;101402.72;1709062;83;21442;-49
2022/06/06 00:42:33;;;;;;;2.80;1.40;;;;;;;23.84;51.22;101405.02;1709236;83;21588;-50
2022/06/06 00:45:29;;;;;;;1.57;1.47;;;;;;;23.82;51.27;101400.25;1709892;83;21490;-49
2022/06/06 00:48:26;;;;;;;1.85;1.52;;;;;;;23.74;51.20;101401.24;1720347;83;20990;-49
2022/06/06 00:51:06;;;;;;;1.50;1.40;;;;;;;23.68;51.42;101400.32;1709088;83;21030;-50
2022/06/06 00:53:48;;;;;;;1.50;1.40;;;;;;;23.62;51.48;101402.05;1718570;83;21062;-55
2022/06/06 00:56:26;;;;;;;1.50;1.40;;;;;;;23.61;51.54;101409.66;1706146;83;21064;-49
2022/06/06 00:59:03;;;;;;;1.57;1.47;;;;;;;23.60;51.73;101410.60;1736394;80;21479;-51
2022/06/06 01:01:31;;;;;;;2.27;1.92;;;;;;;23.64;51.72;101405.97;1783943;80;20986;-54
2022/06/06 01:03:58;;;;;;;1.60;1.50;;;;;;;23.66;51.80;101407.54;1778173;80;21069;-51
2022/06/06 01:06:25;;;;;;;2.15;1.77;;;;;;;23.68;51.74;101395.51;1785441;80;21023;-50
2022/06/06 01:08:54;;;;;;;2.10;1.70;;;;;;;23.68;51.70;101396.84;1778649;80;21054;-50
2022/06/06 01:11:20;;;;;;;2.15;1.70;;;;;;;23.68;51.72;101389.69;1767603;80;21050;-53
2022/06/06 01:13:47;;;;;;;3.67;1.90;;;;;;;23.67;51.77;101387.14;1774674;80;20990;-51
2022/06/06 01:16:47;;;;;;;1.67;1.57;;;;;;;23.69;51.88;101390.55;1780244;80;21077;-50
2022/06/06 01:19:56;;;;;;;1.70;1.60;;;;;;;23.68;51.97;101393.68;1781947;80;20970;-51
2022/06/06 01:22:47;;;;;;;1.85;1.75;;;;;;;23.64;51.97;101392.68;1773319;80;21097;-50
2022/06/06 01:25:35;;;;;;;3.08;2.00;;;;;;;23.61;52.13;101382.23;1766483;81;21045;-50
2022/06/06 01:28:39;;;;;;;3.15;1.72;;;;;;;23.57;52.26;101380.73;1766718;81;21022;-51
2022/06/06 01:31:12;;;;;;;1.85;1.75;;;;;;;23.54;52.34;101379.13;1761386;81;21038;-49
2022/06/06 01:33:57;;;;;;;2.47;1.90;;;;;;;23.50;52.44;101384.27;1767108;81;21058;-50
2022/06/06 01:36:27;;;;;;;1.77;1.67;;;;;;;23.47;52.46;101388.47;1694816;84;21018;-51
2022/06/06 01:38:54;;;;;;;2.10;1.90;;;;;;;23.45;52.58;101385.89;1702958;84;21061;-50
2022/06/06 01:41:30;;;;;;;2.30;1.90;;;;;;;23.44;52.59;101375.38;1703348;84;21027;-54
2022/06/06 01:44:07;;;;;;;2.80;2.02;;;;;;;23.45;52.65;101375.77;1651718;86;21067;-51
2022/06/06 01:46:36;;;;;;;4.72;2.00;;;;;;;23.44;52.63;101368.73;1540065;92;21079;-49
2022/06/06 01:49:06;;;;;;;3.33;2.02;;;;;;;23.43;52.87;101368.38;1543014;92;21108;-51
2022/06/06 01:51:34;;;;;;;3.77;2.25;;;;;;;23.43;53.06;101368.38;1542043;92;21564;-50
2022/06/06 01:54:01;;;;;;;2.00;1.80;;;;;;;;;;1540542;92;21576;-55
2022/06/06 01:56:32;;;;;;;2.17;1.60;;;;;;;23.32;52.97;101376.17;1540556;92;21056;-50
2022/06/06 01:58:59;;;;;;;2.17;1.98;;;;;;;23.29;53.22;101370.55;1489903;95;21631;-55
2022/06/06 02:01:27;;;;;;;2.15;2.02;;;;;;;23.28;53.21;101368.86;1492126;95;21075;-49
2022/06/06 02:03:54;;;;;;;2.72;1.90;;;;;;;23.28;53.26;101361.36;1487769;95;21050;-50
2022/06/06 02:06:21;;;;;;;4.83;1.70;;;;;;;23.29;53.26;101360.39;1492870;95;21093;-49
2022/06/06 02:08:50;;;;;;;2.08;1.87;;;;;;;23.30;53.28;101359.45;1494607;95;21085;-51
2022/06/06 02:11:18;;;;;;;2.00;1.80;;;;;;;23.33;53.34;101368.56;1492085;95;21605;-48
2022/06/06 02:13:46;;;;;;;2.30;2.10;;;;;;;23.35;53.41;101377.28;1492507;95;21555;-54
2022/06/06 02:16:13;;;;;;;2.05;1.80;;;;;;;23.36;53.15;101379.00;1492988;95;21063;-52
2022/06/06 02:18:40;;;;;;;1.70;1.60;;;;;;;23.35;53.12;101378.61;1492882;95;21127;-49
2022/06/06 02:21:07;;;;;;;2.25;1.60;;;;;;;23.37;53.22;101379.36;1491818;95;21158;-52
2022/06/06 02:23:34;;;;;;;2.22;1.80;;;;;;;23.38;53.13;101382.41;1493228;96;21137;-49
2022/06/06 02:26:01;;;;;;;3.50;1.80;;;;;;;23.41;53.15;101390.20;1494077;96;21055;-53
2022/06/06 02:28:28;;;;;;;1.87;1.70;;;;;;;23.42;53.18;101395.87;1510256;93;21608;-52
2022/06/06 02:30:55;;;;;;;1.22;1.22;;;;;;;23.44;52.91;101396.62;1527030;93;21167;-49
2022/06/06 02:33:22;;;;;;;2.62;2.00;;;;;;;23.43;52.90;101409.54;1527470;93;21084;-51
2022/06/06 02:35:49;;;;;;;3.67;1.90;;;;;;;23.46;52.92;101418.62;1527959;93;21636;-51
2022/06/06 02:38:16;;;;;;;2.58;1.98;;;;;;;23.48;52.93;101422.03;1528225;93;21100;-49
2022/06/06 02:40:51;;;;;;;2.25;2.05;;;;;;;23.51;52.74;101424.50;1528068;93;21188;-49
2022/06/06 02:43:19;;;;;;;1.80;1.70;;;;;;;23.53;52.54;101427.91;1601289;86;21097;-50
2022/06/06 02:45:48;;;;;;;2.47;1.80;;;;;;;23.51;52.57;101424.50;1611485;88;21084;-49
2022/06/06 02:48:14;;;;;;;2.40;2.20;;;;;;;23.53;52.54;101430.56;1599614;88;21066;-50
2022/06/06 02:50:42;;;;;;;2.55;1.77;;;;;;;23.55;52.38;101430.46;1623859;88;21085;-48
2022/06/06 02:53:09;;;;;;;2.20;2.00;;;;;;;23.57;52.25;101438.72;1625959;87;21046;-50
2022/06/06 02:55:37;;;;;;;3.95;1.90;;;;;;;23.58;52.09;101441.73;1610096;89;21053;-48
2022/06/06 02:58:05;;;;;;;3.17;2.30;;;;;;;23.60;51.97;101439.83;1637768;88;21101;-49
2022/06/06 03:00:33;;;;;;;2.75;1.87;;;;;;;23.61;51.95;101438.89;1611503;89;21112;-51
2022/06/06 03:03:00;;;;;;;3.87;1.80;;;;;;;23.63;51.93;101432.14;1689491;83;21043;-50
2022/06/06 03:06:01;;;;;;;1.95;1.75;;;;;;;23.64;51.80;101434.69;1742323;82;21464;-49
2022/06/06 03:09:00;;;;;;;2.35;2.15;;;;;;;23.61;51.56;101425.61;1656523;86;21042;-50
2022/06/06 03:11:36;;;;;;;3.10;1.77;;;;;;;23.60;51.63;101423.89;1621674;87;21020;-50
2022/06/06 03:14:20;;;;;;;2.77;1.85;;;;;;;23.63;51.64;101422.84;1627210;87;21054;-50
2022/06/06 03:23:39;;;;;;;2.75;2.02;;;;;;;23.61;51.69;101414.12;1616929;87;21158;-49
2022/06/06 03:26:34;;;;;;;2.58;1.70;;;;;;;23.61;51.56;101411.46;1614788;88;21080;-50
2022/06/06 03:29:24;;;;;;;2.15;1.50;;;;;;;23.61;51.61;101408.80;1612165;88;21548;-50
2022/06/06 03:32:08;;;;;;;2.10;1.90;;;;;;;23.61;51.55;101414.98;1610218;88;21104;-49
2022/06/06 03:34:46;;;;;;;2.05;1.87;;;;;;;23.62;51.67;101412.69;1559750;91;21169;-51
2022/06/06 03:37:49;;;;;;;2.00;1.80;;;;;;;23.64;51.70;101409.45;1555910;91;21124;-51
2022/06/06 03:40:42;;;;;;;1.82;1.70;;;;;;;23.65;51.64;101407.66;1536050;92;21657;-49
2022/06/06 03:43:40;;;;;;;1.70;1.60;;;;;;;23.64;51.51;101414.77;1548686;92;21102;-51
2022/06/06 03:46:36;;;;;;;3.80;1.70;;;;;;;23.57;51.75;101404.64;1575675;90;21053;-49
2022/06/06 03:49:23;;;;;;;1.95;1.85;;;;;;;23.61;51.74;101403.02;1582058;90;21070;-51
2022/06/06 03:52:14;;;;;;;2.33;1.80;;;;;;;23.63;51.79;101397.13;1531043;93;21171;-49
2022/06/06 03:55:27;;;;;;;1.87;1.60;;;;;;;23.65;51.71;101403.66;1559699;92;21098;-49
2022/06/06 03:57:56;;;;;;;2.55;1.77;;;;;;;23.71;51.74;101408.58;1559945;92;21074;-50
2022/06/06 04:00:23;;;;;;;3.58;1.90;;;;;;;23.72;51.82;101408.97;1531160;93;21089;-53
2022/06/06 04:02:49;;;;;;;2.40;2.20;;;;;;;23.78;51.69;101417.36;1531137;93;21086;-49
2022/06/06 04:05:18;;;;;;;1.80;1.70;;;;;;;23.81;51.48;101419.83;1559357;92;21586;-54
2022/06/06 04:07:45;;;;;;;2.25;2.05;;;;;;;23.80;51.50;101421.27;1565700;91;21089;-50
2022/06/06 04:10:13;;;;;;;2.62;2.05;;;;;;;23.84;51.51;101426.28;1576423;91;21606;-50
2022/06/06 04:12:53;;;;;;;2.55;1.70;;;;;;;23.85;51.45;101423.98;1625418;87;21076;-51
2022/06/06 04:15:32;;;;;;;2.60;1.80;;;;;;;23.85;51.41;101413.36;1633257;87;21072;-53
2022/06/06 04:18:26;;;;;;;1.70;1.60;;;;;;;23.87;51.36;101418.09;1633193;87;21064;-52
2022/06/06 04:21:20;;;;;;;2.12;1.70;;;;;;;23.76;51.64;101413.13;1632863;87;21081;-51
2022/06/06 04:24:00;;;;;;;1.82;1.72;;;;;;;23.75;51.74;101412.27;1597372;88;21632;-51
2022/06/06 04:26:44;;;;;;;7.22;1.80;;;;;;;23.75;51.59;101406.95;1588915;89;21610;-53
2022/06/06 04:29:20;;;;;;;2.87;1.67;;;;;;;23.77;51.51;101410.83;1591429;89;21065;-51
2022/06/06 04:32:01;;;;;;;3.92;1.70;;;;;;;23.76;51.53;101410.47;1598404;90;21120;-51
2022/06/06 04:34:40;;;;;;;1.90;1.60;;;;;;;23.76;51.37;101413.95;1617369;87;21062;-53
2022/06/06 04:37:36;;;;;;;1.87;1.67;;;;;;;23.75;51.54;101410.94;1649465;87;21025;-49
2022/06/06 04:40:08;;;;;;;1.70;1.60;;;;;;;23.76;51.34;101409.97;1651735;87;21101;-51
2022/06/06 04:42:44;;;;;;;5.12;2.10;;;;;;;23.76;51.20;101408.64;1617005;89;21113;-50
2022/06/06 04:45:28;;;;;;;2.58;1.40;;;;;;;23.76;51.04;101408.64;1619174;89;21141;-49
2022/06/06 04:47:56;;;;;;;1.82;1.72;;;;;;;23.77;51.28;101409.03;1627145;86;21098;-49
2022/06/06 04:50:23;;;;;;;2.42;1.82;;;;;;;23.77;51.26;101410.36;1657420;86;21095;-53
2022/06/06 04:52:52;;;;;;;2.10;1.92;;;;;;;23.78;51.10;101409.89;1657209;86;21119;-49
2022/06/06 04:55:20;;;;;;;1.75;1.65;;;;;;;23.79;51.05;101411.11;1657287;86;21579;-50
2022/06/06 04:57:51;;;;;;;2.45;2.05;;;;;;;23.81;51.05;101418.50;1657456;86;21065;-54
2022/06/06 05:00:19;;;;;;;4.90;1.87;;;;;;;23.84;50.98;101422.30;1657529;86;21543;-53
2022/06/06 05:02:46;;;;;;;4.45;1.82;;;;;;;23.86;50.67;101432.82;1656200;86;21065;-51
2022/06/06 05:05:14;;;;;;;2.17;1.70;;;;;;;23.86;50.82;101431.02;1657210;86;21567;-53
2022/06/06 05:08:09;;;;;;;2.12;1.82;;;;;;;23.87;50.83;101437.17;1657203;86;21092;-51
2022/06/06 05:10:53;;;;;;;1.95;1.70;;;;;;;23.87;50.89;101440.69;1690785;85;21066;-50
2022/06/06 05:13:58;;;;;;;2.52;2.22;;;;;;;23.87;51.05;101442.48;1651410;86;21068;-51
2022/06/06 05:16:42;;;;;;;1.80;1.52;;;;;;;23.88;51.07;101450.37;1615783;89;21035;-49
2022/06/06 05:19:40;;;;;;;2.75;1.90;;;;;;;23.87;51.02;101455.30;1613878;89;21191;-51
2022/06/06 05:22:35;;;;;;;1.95;1.70;;;;;;;23.89;51.04;101457.38;1652253;86;21062;-50
2022/06/06 05:25:31;;;;;;;1.98;1.70;;;;;;;23.91;50.99;101460.80;1642000;87;21082;-49
2022/06/06 05:28:24;;;;;;;2.00;1.52;;;;;;;23.93;50.89;101461.55;1650866;87;21542;-50
2022/06/06 05:30:58;;;;;;;2.52;1.60;;;;;;;23.96;50.67;101464.02;1653852;87;21054;-49
2022/06/06 05:33:48;;;;;;;2.67;1.90;;;;;;;23.97;50.57;101464.37;1653982;87;21082;-51
2022/06/06 05:36:43;;;;;;;1.60;1.50;;;;;;;24.00;50.53;101473.95;1654061;87;21042;-54
2022/06/06 05:39:42;;;;;;;2.55;1.50;;;;;;;24.00;50.58;101473.49;1603739;88;21562;-54
2022/06/06 05:42:24;;;;;;;2.00;1.70;;;;;;;24.02;50.65;101474.24;1590088;90;21079;-51
2022/06/06 05:45:26;;;;;;;2.05;1.85;;;;;;;24.02;50.74;101474.24;1598350;89;21530;-50
2022/06/06 05:48:12;;;;;;;2.00;1.75;;;;;;;24.03;50.74;101482.61;1581555;89;21076;-50
2022/06/06 05:50:49;;;;;;;2.17;1.80;;;;;;;24.04;50.68;101484.33;1571773;90;21033;-49
2022/06/06 05:53:38;;;;;;;2.12;1.70;;;;;;;24.05;50.75;101487.34;1581494;90;21136;-50
2022/06/06 05:56:31;;;;;;;1.67;1.47;;;;;;;24.07;50.89;101488.59;1583196;90;21080;-51
2022/06/06 05:59:32;;;;;;;2.22;1.98;;;;;;;24.06;50.96;101491.73;1581663;90;21656;-51
2022/06/06 06:02:16;;;;;;;2.17;1.77;;;;;;;24.06;51.27;101494.39;1581405;90;21114;-51
2022/06/06 06:04:48;;;;;;;2.27;1.85;;;;;;;24.04;51.76;101493.63;1578511;90;21131;-51
2022/06/06 06:08:03;;;;;;;3.98;1.72;;;;;;;24.07;52.09;101501.39;1581742;90;21063;-51
2022/06/06 06:10:41;;;;;;;2.33;1.80;;;;;;;24.09;52.30;101502.14;1589009;89;21586;-54
2022/06/06 06:13:43;;;;;;;2.27;2.00;;;;;;;24.11;52.70;101506.05;1605524;89;21066;-50
2022/06/06 06:16:11;;;;;;;2.98;2.10;;;;;;;24.11;52.98;101506.88;1613114;87;21132;-52
2022/06/06 06:18:48;;;;;;;1.80;1.70;;;;;;;24.13;52.96;101500.98;1639318;87;21053;-53
2022/06/06 06:21:22;;;;;;;2.10;1.90;;;;;;;24.14;52.88;101505.36;1639355;87;21157;-51
2022/06/06 06:23:54;;;;;;;3.45;1.80;;;;;;;24.16;53.02;101507.91;1621372;88;21072;-51
2022/06/06 06:26:21;;;;;;;4.28;2.00;;;;;;;24.15;52.94;101507.05;1618804;88;21028;-49
2022/06/06 06:28:49;;;;;;;2.17;1.98;;;;;;;24.13;52.97;101503.64;1622726;88;21588;-50
2022/06/06 06:31:49;;;;;;;2.72;1.92;;;;;;;24.14;52.62;101509.82;1622729;88;21040;-50
2022/06/06 06:34:55;;;;;;;3.65;2.00;;;;;;;24.14;52.68;101514.67;1620014;88;21040;-50
2022/06/06 06:37:55;;;;;;;2.60;2.20;;;;;;;24.14;52.84;101514.67;1683045;85;21112;-50
2022/06/06 06:40:36;;;;;;;2.33;2.00;;;;;;;24.17;52.97;101511.79;1682721;85;21045;-55
2022/06/06 06:43:23;;;;;;;2.58;2.30;;;;;;;24.18;52.86;101517.50;1671868;85;21118;-52
2022/06/06 06:45:56;;;;;;;2.12;1.90;;;;;;;24.19;52.79;101513.05;1682307;85;21502;-56
2022/06/06 06:48:25;;;;;;;3.72;2.17;;;;;;;24.17;52.71;101515.78;1685334;85;21032;-50
2022/06/06 06:51:03;;;;;;;2.37;2.17;;;;;;;24.16;52.81;101516.75;1682195;85;21052;-51
2022/06/06 06:54:05;;;;;;;2.20;2.00;;;;;;;24.14;52.71;101508.02;1719053;83;21069;-49
2022/06/06 06:57:05;;;;;;;3.50;2.20;;;;;;;24.13;52.75;101510.29;1703895;84;21057;-50
2022/06/06 06:59:47;;;;;;;3.58;2.42;;;;;;;24.12;52.68;101519.23;1708241;84;21562;-50
2022/06/06 07:09:38;;;;;;;2.47;2.05;;;;;;;24.18;52.20;101528.14;1696005;84;21045;-52
2022/06/06 07:12:50;;;;;;;3.02;2.33;;;;;;;24.16;52.04;101524.73;1705520;84;21497;-51
2022/06/06 07:15:46;;;;;;;;;;;;;;;24.12;52.02;101527.69;1708094;84;21033;-53
2022/06/06 07:18:15;;;;;;;4.83;2.60;;;;;;;24.16;51.95;101526.53;1705378;84;20103;-50
2022/06/06 07:20:45;;;;;;;3.80;2.55;;;;;;;24.15;51.97;101520.34;1719009;83;21483;-51
2022/06/06 07:23:14;;;;;;;3.05;2.70;;;;;;;24.13;51.96;101514.28;1713590;83;21498;-49
2022/06/06 07:25:48;;;;;;;5.65;2.40;;;;;;;24.09;51.74;101515.44;1694964;84;21101;-49
2022/06/06 07:28:18;;;;;;;2.87;2.60;;;;;;;24.06;51.84;101523.62;1692141;84;21052;-52
2022/06/06 07:31:15;;;;;;;2.58;2.37;;;;;;;23.99;51.85;101524.94;1694710;84;21601;-50
2022/06/06 07:34:23;;;;;;;2.30;2.10;;;;;;;23.95;51.80;101526.09;1672299;85;21035;-49
2022/06/06 07:37:34;;;;;;;3.72;2.37;;;;;;;23.93;51.41;101532.45;1683549;85;21587;-49
2022/06/06 07:40:40;;;;;;;4.78;2.15;;;;;;;23.92;51.11;101536.94;1653279;86;21551;-49
2022/06/06 07:43:31;;;;;;;3.45;2.17;;;;;;;23.99;50.85;101532.91;1619468;88;21570;-50
2022/06/06 07:46:25;;;;;;;3.67;2.60;;;;;;;24.02;50.24;101539.38;1612997;88;21030;-51
2022/06/06 07:49:03;;;;;;;2.70;2.42;;;;;;;24.02;50.33;101540.70;1646799;86;21614;-50
2022/06/06 07:51:45;;;;;;;3.80;2.50;;;;;;;24.03;49.94;101550.41;1646911;86;21601;-49
2022/06/06 07:54:36;;;;;;;3.77;2.27;;;;;;;24.04;50.02;101549.47;1625080;87;21097;-49
2022/06/06 07:57:13;;;;;;;2.25;1.98;;;;;;;24.11;50.23;101560.56;1614356;87;21110;-53
2022/06/06 08:00:12;;;;;;;5.35;2.67;;;;;;;24.11;50.23;101560.56;1614449;87;21062;-49
2022/06/06 08:03:20;;;;;;;3.37;2.65;;;;;;;24.14;50.52;101565.66;1627700;87;21117;-49
2022/06/06 08:06:09;;;;;;;6.08;2.33;;;;;;;24.20;50.86;101568.78;1549441;92;21111;-52
2022/06/06 08:08:53;;;;;;;5.15;2.58;;;;;;;24.27;51.79;101567.05;1568072;90;21102;-50
2022/06/06 08:11:54;;;;;;;4.47;2.70;;;;;;;24.33;51.78;101570.62;1572340;90;21171;-52
2022/06/06 08:14:39;;;;;;;5.05;2.30;;;;;;;24.37;51.94;101572.99;1557780;91;21606;-49
2022/06/06 08:17:41;;;;;;;2.72;2.35;;;;;;;24.40;52.28;101567.45;1558241;91;21104;-56
2022/06/06 08:20:27;;;;;;;5.15;2.65;;;;;;;24.43;52.39;101569.06;1548694;91;21101;-51
2022/06/06 08:22:56;;;;;;;4.60;2.67;;;;;;;24.50;53.27;101565.91;1558082;91;21121;-52
2022/06/06 08:25:23;;;;;;;10.25;3.20;;;;;;;24.75;54.21;101574.47;1580826;89;21102;-51
2022/06/06 08:27:51;;;;;;;5.83;2.35;;;;;;;24.75;54.21;101574.47;1588660;89;21142;-50
2022/06/06 08:30:20;;;;;;;6.33;2.90;;;;;;;24.94;53.28;101577.55;1613370;88;21073;-51
2022/06/06 08:32:47;;;;;;;4.30;2.72;;;;;;;24.94;53.28;101577.55;1614505;88;21065;-53
2022/06/06 08:35:16;;;;;;;5.33;2.47;;;;;;;25.01;52.96;101580.19;1597206;88;21090;-53
2022/06/06 08:38:06;;;;;;;8.15;2.65;;;;;;;25.09;53.49;101565.86;1607676;88;21082;-53
2022/06/06 08:41:06;;;;;;;5.15;2.70;;;;;;;25.09;53.49;101565.86;1596364;89;21613;-52
2022/06/06 08:43:58;;;;;;;4.92;2.40;;;;;;;25.16;53.46;101559.16;1623343;88;21045;-52
2022/06/06 08:47:00;;;;;;;6.37;2.47;;;;;;;25.17;52.58;101555.52;1580924;90;21104;-55
2022/06/06 08:53:17;;;;;;;2.60;2.37;;;;;;;25.25;52.66;101570.95;1548612;92;21094;-51
2022/06/06 08:56:35;;;;;;;2.92;2.20;;;;;;;25.25;52.40;101562.97;1550085;92;21077;-51
2022/06/06 08:59:50;;;;;;;5.50;2.52;;;;;;;25.28;51.65;101572.09;1574984;90;21170;-51
2022/06/06 09:02:49;;;;;;;2.60;2.20;;;;;;;25.27;51.33;101565.91;1557599;90;21625;-54
2022/06/06 09:05:47;;;;;;;4.95;3.00;;;;;;;25.24;52.20;101560.81;1573225;90;21589;-54
2022/06/06 09:08:52;;;;;;;3.55;2.60;;;;;;;25.24;52.55;101555.95;1499841;95;21099;-49
2022/06/06 09:12:04;;;;;;;3.10;2.52;;;;;;;25.24;52.55;101555.95;1501577;95;21087;-51
2022/06/06 09:15:04;;;;;;;3.33;2.45;;;;;;;25.26;52.88;101564.22;1499028;95;21096;-51
2022/06/06 09:18:05;;;;;;;2.83;2.60;;;;;;;25.24;51.67;101563.47;1500329;95;21076;-50
2022/06/06 09:21:17;;;;;;;3.05;2.40;;;;;;;25.24;51.77;101575.93;1501069;95;21151;-49
2022/06/06 09:24:07;;;;;;;2.72;2.50;;;;;;;25.23;51.65;101568.88;1511186;93;21569;-52
2022/06/06 09:27:10;;;;;;;3.00;2.25;;;;;;;25.24;51.25;101558.14;1558459;90;21165;-49
2022/06/06 09:30:12;;;;;;;2.85;2.30;;;;;;;25.22;50.65;101553.41;1555230;90;21026;-51
2022/06/06 09:33:10;;;;;;;3.50;2.10;;;;;;;25.22;50.65;101553.41;1558425;90;21120;-53
2022/06/06 09:36:07;;;;;;;8.43;2.27;;;;;;;25.22;50.25;101556.06;1535077;92;21082;-53
2022/06/06 09:38:57;;;;;;;3.85;2.12;;;;;;;25.21;50.08;101565.00;1531714;92;21058;-51
2022/06/06 09:41:40;;;;;;;3.52;2.33;;;;;;;25.23;50.39;101561.75;1514839;93;21138;-50
2022/06/06 09:44:31;;;;;;;2.80;2.02;;;;;;;25.24;50.38;101562.61;1576953;89;21159;-54
2022/06/06 09:47:41;;;;;;;3.45;2.27;;;;;;;25.24;50.38;101562.61;1617177;88;21082;-53
2022/06/06 09:50:29;;;;;;;2.67;2.17;;;;;;;25.25;50.59;101562.50;1585786;89;21128;-53
2022/06/06 09:53:30;;;;;;;2.35;2.02;;;;;;;25.26;50.25;101556.23;1582379;88;21578;-55
2022/06/06 10:00:04;;;;;;;4.37;2.55;;;;;;;25.32;49.25;101561.12;1584893;88;21562;-52
2022/06/06 10:02:46;;;;;;;2.45;1.90;;;;;;;25.32;48.53;101558.92;1596928;89;21046;-55
2022/06/06 10:05:58;;;;;;;3.95;2.08;;;;;;;25.30;47.58;101556.85;1617150;88;21634;-52
2022/06/06 10:09:13;;;;;;;1.70;1.57;;;;;;;25.24;47.04;101556.81;1622284;88;21054;-49
2022/06/06 10:11:56;;;;;;;1.75;1.52;;;;;;;25.24;47.04;101556.81;1621635;85;21074;-51
2022/06/06 10:14:38;;;;;;;1.60;1.50;;;;;;;25.22;47.13;101552.55;1680232;85;21039;-53
2022/06/06 10:17:17;;;;;;;;;;;;;;;25.20;46.90;101547.33;1682172;84;21617;-48
2022/06/06 10:19:58;;;;;;;4.78;1.90;;;;;;;25.14;47.26;101543.77;1686134;85;20122;-50
2022/06/06 10:22:50;;;;;;;6.47;1.80;;;;;;;25.14;47.26;101543.77;1646779;86;21046;-54
2022/06/06 10:25:37;;;;;;;2.77;1.70;;;;;;;25.13;47.24;101544.71;1626609;87;21127;-49
2022/06/06 10:28:33;;;;;;;2.98;1.82;;;;;;;25.12;46.97;101555.48;1602697;88;21588;-52
2022/06/06 10:31:25;;;;;;;2.67;1.70;;;;;;;25.07;47.39;101555.80;1619504;87;21038;-49
2022/06/06 10:34:20;;;;;;;3.67;1.90;;;;;;;25.09;47.56;101561.87;1558397;91;21054;-49
2022/06/06 10:37:27;;;;;;;1.75;1.50;;;;;;;25.13;47.63;101565.16;1560092;91;21577;-53
2022/06/06 10:40:12;;;;;;;3.55;1.67;;;;;;;25.13;47.63;101565.16;1578133;89;21553;-49
2022/06/06 10:43:14;;;;;;;1.77;1.65;;;;;;;25.13;47.50;101558.03;1578770;90;21653;-52
2022/06/06 10:45:46;;;;;;;;;;;;;;;25.15;46.90;101564.09;1589986;88;21034;-51
2022/06/06 10:48:43;;;;;;;2.90;1.90;;;;;;;25.16;47.09;101564.96;1592295;88;20124;-50
2022/06/06 10:51:42;;;;;;;3.70;1.70;;;;;;;25.13;46.85;101563.36;1573476;90;21082;-50
2022/06/06 10:54:43;;;;;;;6.10;1.80;;;;;;;25.12;47.09;101556.34;1580999;89;21085;-50
2022/06/06 10:57:32;;;;;;;2.92;1.90;;;;;;;25.12;46.88;101556.34;1579224;89;21114;-49
2022/06/06 11:00:10;;;;;;;2.45;1.60;;;;;;;25.12;46.88;101556.34;1584698;90;21604;-50
2022/06/06 11:03:12;;;;;;;4.15;1.72;;;;;;;25.08;47.10;101554.82;1583821;89;21177;-51
2022/06/06 11:06:01;;;;;;;2.33;1.72;;;;;;;25.08;47.74;101548.66;1583710;89;21102;-54
2022/06/06 11:09:02;;;;;;;4.00;1.57;;;;;;;25.06;48.10;101552.74;1580585;90;21122;-50
2022/06/06 11:12:11;;;;;;;1.45;1.32;;;;;;;25.03;48.55;101547.17;1581281;90;21542;-52
2022/06/06 11:14:44;;;;;;;1.82;1.42;;;;;;;25.05;47.75;101549.72;1576040;90;21617;-52
2022/06/06 11:17:41;;;;;;;1.85;1.40;;;;;;;25.05;47.26;101549.72;1580297;90;21065;-50
2022/06/06 11:21:01;;;;;;;2.75;1.70;;;;;;;25.09;46.83;101555.67;1605328;87;21022;-51
2022/06/06 11:23:41;;;;;;;1.42;1.30;;;;;;;25.10;46.68;101544.91;1649473;85;21731;-51
2022/06/06 11:26:34;;;;;;;1.65;1.37;;;;;;;25.11;46.25;101535.98;1611019;88;21074;-52
2022/06/06 11:29:22;;;;;;;2.40;1.55;;;;;;;25.11;46.38;101534.64;1625860;88;21062;-51
2022/06/06 11:32:12;;;;;;;4.65;1.70;;;;;;;25.11;47.03;101535.98;1592461;89;21074;-52
2022/06/06 11:35:16;;;;;;;1.60;1.47;;;;;;;25.10;46.70;101531.59;1589969;90;21066;-50
2022/06/06 11:37:55;;;;;;;2.52;1.60;;;;;;;25.08;46.59;101536.17;1621346;88;21070;-51
2022/06/06 11:40:35;;;;;;;2.98;1.82;;;;;;;25.07;47.83;101529.16;1607566;88;21116;-51
2022/06/06 11:43:19;;;;;;;2.00;1.80;;;;;;;25.07;47.83;101529.16;1621088;88;21155;-51
2022/06/06 11:46:12;;;;;;;3.85;1.75;;;;;;;25.08;48.90;101536.17;1607933;89;21570;-50
2022/06/06 11:49:03;;;;;;;3.02;2.20;;;;;;;25.10;50.58;101532.92;1600790;89;20978;-53
2022/06/06 11:52:19;;;;;;;4.65;1.90;;;;;;;25.10;50.58;101532.92;1578406;89;21071;-53
2022/06/06 11:55:20;;;;;;;4.65;1.57;;;;;;;25.15;51.10;101534.80;1580887;89;21075;-50
2022/06/06 11:58:04;;;;;;;2.15;1.92;;;;;;;25.19;51.00;101526.97;1571131;89;21107;-51
2022/06/06 12:00:43;;;;;;;3.17;1.50;;;;;;;25.22;50.42;101528.57;1582609;88;21070;-51
2022/06/06 12:03:39;;;;;;;1.82;1.45;;;;;;;25.26;47.69;101526.06;1581365;89;21589;-50
2022/06/06 12:06:38;;;;;;;1.87;1.30;;;;;;;25.26;47.69;101526.06;1578571;89;21089;-52
2022/06/06 12:09:31;;;;;;;3.02;1.42;;;;;;;25.29;46.63;101526.69;1579569;89;21190;-50
2022/06/06 12:12:32;;;;;;;2.67;1.50;;;;;;;25.30;46.44;101525.74;1576254;90;21222;-51
2022/06/06 12:15:27;;;;;;;3.70;1.83;;;;;;;25.37;46.48;101526.17;1576338;89;21604;-52
2022/06/06 12:18:26;;;;;;;2.65;1.77;;;;;;;25.43;48.11;101525.25;1535716;92;21438;-54
2022/06/06 12:21:33;;;;;;;1.87;1.50;;;;;;;25.43;48.11;101525.25;1575458;90;21092;-51
2022/06/06 12:24:44;;;;;;;2.72;1.70;;;;;;;25.43;48.53;101523.92;1595019;88;21157;-50
2022/06/06 12:27:31;;;;;;;2.45;1.67;;;;;;;25.45;49.15;101519.33;1597980;88;21086;-53
2022/06/06 12:30:18;;;;;;;3.60;1.52;;;;;;;25.44;48.62;101508.33;1552086;91;21111;-53
2022/06/06 12:33:02;;;;;;;2.60;1.70;;;;;;;25.44;48.62;101508.33;1552347;92;21626;-54
2022/06/06 12:36:04;;;;;;;2.10;1.52;;;;;;;25.45;48.68;101504.68;1547075;92;21669;-51
2022/06/06 12:38:55;;;;;;;1.70;1.50;;;;;;;25.45;48.44;101508.67;1551256;92;21606;-50
2022/06/06 12:41:59;;;;;;;2.00;1.30;;;;;;;25.46;47.19;101510.39;1545104;92;21036;-55
2022/06/06 12:44:54;;;;;;;1.85;1.62;;;;;;;25.50;46.74;101501.22;1602045;89;21064;-53
2022/06/06 12:47:46;;;;;;;2.65;1.40;;;;;;;25.50;45.81;101490.55;1600502;89;21071;-50
2022/06/06 12:50:29;;;;;;;2.95;1.60;;;;;;;25.54;45.40;101496.03;1598290;89;21063;-51
2022/06/06 12:53:38;;;;;;;1.37;1.27;;;;;;;25.55;44.90;101501.75;1620491;87;21110;-50
2022/06/06 12:56:17;;;;;;;2.12;1.50;;;;;;;25.54;43.83;101508.03;1632911;87;21102;-50
2022/06/06 12:58:48;;;;;;;2.17;1.47;;;;;;;25.54;43.83;101508.03;1617176;87;22601;-52
2022/06/06 13:01:42;;;;;;;1.98;1.10;;;;;;;25.56;43.45;101504.77;1599682;89;21057;-51
2022/06/06 13:04:26;;;;;;;3.75;1.70;;;;;;;25.61;42.84;101514.63;1581369;89;21638;-50
2022/06/06 13:07:22;;;;;;;1.75;1.65;;;;;;;25.61;42.84;101514.63;1560791;91;21097;-53
2022/06/06 13:10:30;;;;;;;2.25;1.50;;;;;;;25.62;43.10;101510.98;1580626;90;21089;-51